Flagstaff, Arizona
Current Conditions -  °F | °C
As of 9:39 PM on Thursday 18 Dec 2014 (Local Time) from KFLG Reporting Station
Haze Haze  
Wind Chill: -6°   Ceiling: 100
Heat Index: -6°   Visibility: 1mi
Dew Point: -8°   Wind: 0mph
Humidity: 88%   Direction: NA
Pressure: 30.19"   Gusts: NA
Location:  35.2°N, 111.65°W
Report Text: KFLG 190439Z AUTO 00000KT 1SM BR VV001 M06/M08 A3019 RMK AO2 VIS 1/4V5 I1000 T10611078 TSNO
Loading
Personal Weather Stations






























Interactive Weather Map New forecast layout! Learn more

10-Day Weather Forecast

Advertisements
Track Severe Weather on mobile